Time;durP1;ratioP1;P1;durP2;ratioP2;P2;SDS_P1;SDS_P2;PMS_P1;PMS_P2;Temp;Humidity;BMP_temperature;BMP_pressure;BME280_temperature;BME280_humidity;BME280_pressure;Samples;Min_cycle;Max_cycle;Signal;HPM_P1;HPM_P2
2022/01/23 00:00:04;;;;;;;54.78;30.33;;;;;;;3.20;100.00;102470.69;4943192;29;20416;-74
2022/01/23 00:02:33;;;;;;;59.47;30.70;;;;;;;3.18;100.00;102475.56;4954148;29;20035;-74
2022/01/23 00:05:05;;;;;;;54.30;28.75;;;;;;;3.20;100.00;102473.44;4944509;28;20080;-74
2022/01/23 00:07:31;;;;;;;55.25;30.70;;;;;;;3.19;100.00;102469.00;4925268;29;20051;-74
2022/01/23 00:09:57;;;;;;;59.45;30.10;;;;;;;3.22;100.00;102470.50;4934820;29;20601;-74
2022/01/23 00:12:25;;;;;;;58.28;30.77;;;;;;;3.18;100.00;102470.06;4956668;28;20031;-74
2022/01/23 00:17:35;;;;;;;54.63;29.52;;;;;;;3.15;100.00;102467.72;4943176;29;20039;-74
2022/01/23 00:20:04;;;;;;;61.08;30.27;;;;;;;3.10;100.00;102464.69;4949577;29;20038;-74
2022/01/23 00:22:39;;;;;;;56.00;30.48;;;;;;;3.05;100.00;102467.19;4959361;28;20039;-74
2022/01/23 00:30:34;;;;;;;57.10;29.83;;;;;;;3.03;100.00;102463.78;4941716;29;20053;-74
2022/01/23 00:33:01;;;;;;;58.50;31.25;;;;;;;3.02;100.00;102457.44;4957962;28;20046;-74
2022/01/23 00:35:27;;;;;;;55.55;29.65;;;;;;;3.04;100.00;102457.25;4957323;28;20035;-74
2022/01/23 00:37:53;;;;;;;56.20;30.75;;;;;;;3.03;100.00;102452.78;4942917;29;20035;-74
2022/01/23 00:40:18;;;;;;;54.75;29.48;;;;;;;3.05;100.00;102456.19;4951804;28;20084;-74
2022/01/23 00:42:44;;;;;;;50.67;28.95;;;;;;;3.05;100.00;102457.03;4939907;29;20058;-74
2022/01/23 00:47:38;;;;;;;50.70;26.98;;;;;;;3.05;100.00;102457.03;4940891;28;20035;-74
2022/01/23 00:50:04;;;;;;;62.47;30.40;;;;;;;3.04;100.00;102451.78;4943636;29;20609;-74
2022/01/23 00:52:30;;;;;;;59.65;31.42;;;;;;;3.04;100.00;102449.03;4942814;28;20027;-74
2022/01/23 00:54:55;;;;;;;60.83;31.10;;;;;;;3.03;100.00;102450.91;4928437;29;20038;-74
2022/01/23 00:57:21;;;;;;;60.17;29.98;;;;;;;3.03;100.00;102442.66;4955746;28;20392;-74
2022/01/23 00:59:47;;;;;;;54.25;29.65;;;;;;;3.04;100.00;102444.38;4958421;28;20058;-74
2022/01/23 01:02:12;;;;;;;51.97;30.15;;;;;;;3.05;100.00;102442.47;4954603;29;20043;-74
2022/01/23 01:04:38;;;;;;;57.97;29.67;;;;;;;3.03;100.00;102430.84;4925208;29;20043;-74
2022/01/23 01:07:03;;;;;;;55.00;29.95;;;;;;;3.01;100.00;102432.91;4958516;28;20031;-74
2022/01/23 01:09:30;;;;;;;56.67;31.58;;;;;;;3.00;100.00;102426.59;4941844;29;20388;-74
2022/01/23 01:11:59;;;;;;;56.55;29.45;;;;;;;3.03;100.00;102431.69;4940394;28;20042;-74
2022/01/23 01:30:16;;;;;;;53.92;27.85;;;;;;;3.04;100.00;102430.66;4959254;28;20039;-74
2022/01/23 01:36:00;;;;;;;54.40;29.13;;;;;;;2.96;100.00;102435.44;4953933;28;20046;-74
2022/01/23 01:38:26;;;;;;;55.92;28.58;;;;;;;2.95;100.00;102428.22;4970684;28;20031;-74
2022/01/23 01:40:52;;;;;;;56.28;28.92;;;;;;;2.95;100.00;102428.22;4940249;29;20050;-74
2022/01/23 01:43:17;;;;;;;58.95;29.75;;;;;;;2.92;100.00;102423.97;4960068;28;20086;-74
2022/01/23 01:45:44;;;;;;;53.42;28.40;;;;;;;2.94;100.00;102426.53;4943476;29;20031;-74
2022/01/23 01:48:09;;;;;;;55.75;29.30;;;;;;;2.93;100.00;102424.84;4942915;29;20027;-74
2022/01/23 01:50:35;;;;;;;50.85;26.48;;;;;;;2.93;100.00;102422.09;4958902;28;20030;-74
2022/01/23 01:53:01;;;;;;;53.53;27.83;;;;;;;2.92;100.00;102418.47;4960864;28;20043;-74
2022/01/23 01:55:37;;;;;;;49.80;26.58;;;;;;;2.93;100.00;102413.88;4930345;29;20036;-74
2022/01/23 01:58:04;;;;;;;50.53;26.63;;;;;;;2.90;100.00;102413.22;4940129;29;20040;-74
2022/01/23 02:10:46;;;;;;;52.35;27.13;;;;;;;2.75;100.00;102390.47;4945162;28;20063;-74
2022/01/23 02:13:13;;;;;;;51.17;26.08;;;;;;;2.73;100.00;102392.56;4958840;28;20058;-74
2022/01/23 02:25:01;;;;;;;48.60;26.75;;;;;;;2.73;100.00;102381.59;4959300;28;20035;-74
2022/01/23 02:57:04;;;;;;;46.53;24.20;;;;;;;2.65;100.00;102359.78;4958642;28;20126;-74
2022/01/23 02:59:32;;;;;;;43.15;23.20;;;;;;;2.63;100.00;102354.47;4943161;29;20035;-74
2022/01/23 03:04:51;;;;;;;43.25;24.48;;;;;;;2.60;100.00;102346.63;4935008;28;20045;-74
2022/01/23 03:07:37;;;;;;;45.88;25.70;;;;;;;2.60;100.00;102345.78;4937020;29;20506;-74
2022/01/23 03:10:08;;;;;;;50.00;24.83;;;;;;;2.60;100.00;102343.91;4955209;28;20067;-74
2022/01/23 03:15:57;;;;;;;43.65;21.67;;;;;;;2.63;100.00;102342.66;4926573;29;20078;-74
2022/01/23 03:26:48;;;;;;;39.78;21.50;;;;;;;2.69;100.00;102344.59;4942669;29;20027;-74
2022/01/23 03:34:17;;;;;;;41.58;22.27;;;;;;;2.75;100.00;102346.56;4947261;28;20071;-74
2022/01/23 03:36:42;;;;;;;46.38;24.17;;;;;;;2.71;100.00;102339.78;4958527;28;20049;-74
2022/01/23 03:39:08;;;;;;;43.72;22.15;;;;;;;2.73;100.00;102345.06;4946000;28;20028;-74
2022/01/23 03:41:37;;;;;;;42.33;23.23;;;;;;;2.72;100.00;102335.97;4925097;29;20038;-74
2022/01/23 03:44:05;;;;;;;42.20;22.38;;;;;;;2.69;100.00;102337.22;4969301;28;20042;-74
2022/01/23 03:51:44;;;;;;;44.42;24.38;;;;;;;2.58;100.00;102335.00;4956825;28;20054;-74
2022/01/23 03:54:09;;;;;;;49.75;25.20;;;;;;;2.59;100.00;102336.72;4967463;28;20035;-74
2022/01/23 03:56:35;;;;;;;46.38;24.15;;;;;;;2.55;100.00;102335.41;4975300;28;20035;-74
2022/01/23 03:59:00;;;;;;;45.10;22.98;;;;;;;2.56;100.00;102328.03;4941906;29;20042;-74
2022/01/23 04:01:26;;;;;;;46.50;23.77;;;;;;;2.52;100.00;102330.31;4940608;28;20027;-74
2022/01/23 04:03:54;;;;;;;43.88;22.38;;;;;;;2.52;100.00;102338.53;4956141;28;20689;-75
2022/01/23 04:06:20;;;;;;;42.83;23.20;;;;;;;2.50;100.00;102332.41;4958590;28;20165;-74
2022/01/23 04:08:45;;;;;;;42.47;22.75;;;;;;;2.50;100.00;102331.56;4956361;29;20039;-74
2022/01/23 04:11:11;;;;;;;44.25;23.10;;;;;;;2.44;100.00;102339.50;4955495;28;20089;-74
2022/01/23 04:14:03;;;;;;;46.47;22.98;;;;;;;2.46;100.00;102326.47;4939530;29;20032;-74
2022/01/23 04:32:42;;;;;;;46.58;24.60;;;;;;;2.39;100.00;102324.69;4954479;28;20061;-74
2022/01/23 04:46:04;;;;;;;44.20;24.40;;;;;;;2.47;100.00;102319.91;4970118;28;20039;-74
2022/01/23 04:59:36;;;;;;;41.63;22.60;;;;;;;2.46;100.00;102310.00;4951161;28;20027;-74
2022/01/23 05:04:35;;;;;;;50.88;24.88;;;;;;;2.47;100.00;102311.69;4960162;28;20032;-74
2022/01/23 05:07:07;;;;;;;46.10;24.95;;;;;;;2.46;100.00;102312.75;4960663;28;20491;-74
2022/01/23 05:09:33;;;;;;;45.43;22.43;;;;;;;2.47;100.00;102306.22;4960985;28;20039;-74
2022/01/23 05:12:06;;;;;;;45.83;23.55;;;;;;;2.44;100.00;102303.84;4928410;28;20035;-74
2022/01/23 05:14:38;;;;;;;44.40;23.05;;;;;;;2.47;100.00;102308.94;4955328;29;20035;-74
2022/01/23 05:17:05;;;;;;;41.63;24.20;;;;;;;2.43;100.00;102302.16;4937444;29;20047;-74
2022/01/23 05:19:32;;;;;;;41.60;23.10;;;;;;;2.43;100.00;102302.16;4943834;29;20031;-74
2022/01/23 05:24:47;;;;;;;42.70;24.73;;;;;;;2.42;100.00;102299.63;4946083;29;20031;-74
2022/01/23 05:27:12;;;;;;;42.90;23.25;;;;;;;2.41;100.00;102307.00;4941293;28;20071;-74
2022/01/23 05:29:38;;;;;;;46.40;24.45;;;;;;;2.41;100.00;102300.66;4944818;29;20038;-74
2022/01/23 05:32:04;;;;;;;45.05;23.42;;;;;;;2.40;100.00;102305.31;4960594;28;20063;-74
2022/01/23 05:34:30;;;;;;;40.90;22.30;;;;;;;2.42;100.00;102296.88;4961731;28;20027;-74
2022/01/23 05:36:55;;;;;;;43.45;22.67;;;;;;;2.41;100.00;102300.66;4933294;29;20066;-74
2022/01/23 05:39:23;;;;;;;41.55;22.63;;;;;;;2.41;100.00;102301.50;4947678;29;20366;-73
2022/01/23 05:41:58;;;;;;;43.25;23.08;;;;;;;2.40;100.00;102293.50;4949179;28;20032;-74
2022/01/23 05:44:24;;;;;;;44.95;23.90;;;;;;;2.41;100.00;102290.53;4965303;28;20080;-74
2022/01/23 05:46:49;;;;;;;38.55;22.42;;;;;;;2.41;100.00;102296.03;4952174;28;20122;-74
2022/01/23 05:49:15;;;;;;;41.33;22.25;;;;;;;2.38;100.00;102296.41;4960700;28;20506;-74
2022/01/23 05:51:40;;;;;;;39.50;20.63;;;;;;;2.34;100.00;102289.66;4945453;29;20043;-74
2022/01/23 05:54:06;;;;;;;46.63;22.08;;;;;;;2.34;100.00;102289.66;4951494;28;20063;-74
2022/01/23 05:56:31;;;;;;;40.17;21.05;;;;;;;2.34;100.00;102292.38;4949583;28;20090;-74
2022/01/23 05:58:57;;;;;;;37.40;21.02;;;;;;;2.36;100.00;102282.06;4927015;29;20507;-73
2022/01/23 06:01:22;;;;;;;43.25;21.15;;;;;;;2.34;100.00;102284.16;4943668;29;20046;-73
2022/01/23 06:03:48;;;;;;;40.25;20.38;;;;;;;2.36;100.00;102283.94;4958522;29;20035;-73
2022/01/23 06:06:13;;;;;;;36.97;21.02;;;;;;;2.36;100.00;102284.78;4944792;29;20054;-74
2022/01/23 06:08:39;;;;;;;35.38;21.35;;;;;;;2.35;100.00;102291.34;4925995;28;20429;-74
2022/01/23 06:11:04;;;;;;;38.05;21.70;;;;;;;2.36;100.00;102287.53;4942060;29;20393;-74
2022/01/23 06:13:31;;;;;;;36.42;19.58;;;;;;;2.38;100.00;102290.94;4956871;28;20433;-74
2022/01/23 06:15:57;;;;;;;35.65;20.38;;;;;;;2.39;100.00;102284.41;4942665;28;20031;-74
2022/01/23 06:18:22;;;;;;;33.70;20.17;;;;;;;2.42;100.00;102284.03;4969663;28;20424;-74
2022/01/23 06:20:48;;;;;;;37.80;20.17;;;;;;;2.43;100.00;102288.47;4962812;28;20032;-74
2022/01/23 06:23:13;;;;;;;31.80;19.40;;;;;;;2.44;100.00;102292.03;4960599;28;20045;-74
2022/01/23 06:25:46;;;;;;;34.38;19.75;;;;;;;2.44;100.00;102292.88;4960314;28;20035;-74
2022/01/23 06:28:12;;;;;;;;;;;;;;;2.43;100.00;102288.47;4954954;28;20408;-74
2022/01/23 06:30:38;;;;;;;36.20;18.98;;;;;;;2.43;100.00;102285.72;4956364;29;20369;-74
2022/01/23 06:33:05;;;;;;;33.85;19.02;;;;;;;2.42;100.00;102285.91;4957003;28;20043;-74
2022/01/23 06:35:31;;;;;;;35.38;19.38;;;;;;;2.43;100.00;102291.19;4949985;28;20034;-74
2022/01/23 06:37:56;;;;;;;32.78;19.05;;;;;;;2.46;100.00;102292.72;4958226;29;20035;-74
2022/01/23 06:40:22;;;;;;;31.85;19.92;;;;;;;2.46;100.00;102293.56;4956880;28;20121;-74
2022/01/23 06:42:47;;;;;;;35.92;19.48;;;;;;;2.47;100.00;102292.50;4960260;28;20027;-74
2022/01/23 06:45:13;;;;;;;33.03;19.00;;;;;;;2.47;100.00;102297.97;4957748;28;20507;-74
2022/01/23 06:47:39;;;;;;;34.42;19.33;;;;;;;2.50;100.00;102298.63;4941835;28;20050;-74
2022/01/23 06:50:04;;;;;;;31.42;19.63;;;;;;;2.52;100.00;102304.78;4959600;28;20032;-74
2022/01/23 06:52:30;;;;;;;37.92;20.83;;;;;;;2.50;100.00;102304.13;4943597;29;20038;-74
2022/01/23 06:54:55;;;;;;;34.85;19.55;;;;;;;2.48;100.00;102301.59;4972544;28;20103;-74
2022/01/23 06:57:21;;;;;;;38.85;18.92;;;;;;;2.48;100.00;102309.81;4958629;28;20044;-74
2022/01/23 06:59:46;;;;;;;36.03;18.55;;;;;;;2.49;100.00;102310.66;4956785;28;20035;-74
2022/01/23 07:02:12;;;;;;;37.80;19.38;;;;;;;2.45;100.00;102313.81;4944481;29;20555;-74
2022/01/23 07:04:37;;;;;;;35.22;19.05;;;;;;;2.47;100.00;102305.38;4957408;29;20032;-74
2022/01/23 07:07:03;;;;;;;38.22;19.10;;;;;;;2.47;100.00;102300.72;4959034;28;20039;-74
2022/01/23 07:09:29;;;;;;;38.35;18.50;;;;;;;2.47;100.00;102305.38;4958262;28;20035;-74
2022/01/23 07:11:54;;;;;;;35.38;18.17;;;;;;;2.46;100.00;102298.19;4957506;28;20038;-74
2022/01/23 07:14:19;;;;;;;37.13;18.27;;;;;;;2.41;100.00;102307.00;4955843;28;20028;-74
2022/01/23 07:16:45;;;;;;;31.75;18.13;;;;;;;2.43;100.00;102313.13;4958305;29;20039;-74
2022/01/23 07:19:10;;;;;;;32.22;18.02;;;;;;;2.45;100.00;102312.94;4955354;28;20078;-74
2022/01/23 07:21:36;;;;;;;31.70;18.77;;;;;;;2.46;100.00;102320.97;4964166;28;20062;-74
2022/01/23 07:24:02;;;;;;;31.95;17.73;;;;;;;2.44;100.00;102324.97;4937998;29;20031;-74
2022/01/23 07:26:28;;;;;;;35.38;19.23;;;;;;;2.42;100.00;102319.69;4957535;28;20480;-74
2022/01/23 07:28:56;;;;;;;34.10;18.20;;;;;;;2.38;100.00;102326.59;4958892;28;20039;-74
2022/01/23 07:31:43;;;;;;;35.80;18.98;;;;;;;2.35;100.00;102329.72;4943719;29;20031;-74
2022/01/23 07:34:10;;;;;;;35.40;18.33;;;;;;;2.35;100.00;102326.97;4955657;28;20430;-73
2022/01/23 07:36:36;;;;;;;38.33;18.50;;;;;;;2.33;100.00;102322.72;4950185;28;20120;-73
2022/01/23 07:39:02;;;;;;;34.65;18.90;;;;;;;2.29;100.00;102325.03;4958797;28;20096;-74
2022/01/23 07:41:28;;;;;;;34.88;19.02;;;;;;;2.31;100.00;102316.59;4944663;29;20071;-73
2022/01/23 07:43:54;;;;;;;35.47;19.60;;;;;;;2.34;100.00;102317.06;4925209;28;20432;-73
2022/01/23 07:46:21;;;;;;;37.70;20.40;;;;;;;2.32;100.00;102321.88;4957871;28;20031;-73
2022/01/23 07:48:47;;;;;;;37.95;19.98;;;;;;;2.33;100.00;102329.06;4942441;29;20507;-73
2022/01/23 07:51:12;;;;;;;41.20;20.23;;;;;;;2.32;100.00;102323.78;4954598;28;20038;-72
2022/01/23 07:53:38;;;;;;;42.47;21.65;;;;;;;2.30;100.00;102318.50;4942102;29;20488;-71
2022/01/23 07:56:03;;;;;;;41.92;22.02;;;;;;;2.30;100.00;102318.50;4957000;28;20039;-75
2022/01/23 07:58:29;;;;;;;42.10;20.40;;;;;;;2.34;100.00;102310.72;4940039;28;20032;-74
2022/01/23 08:00:54;;;;;;;38.65;21.02;;;;;;;2.35;100.00;102313.28;4941504;29;20086;-74
2022/01/23 08:03:20;;;;;;;44.35;22.98;;;;;;;2.32;100.00;102313.66;4949817;29;20058;-74
2022/01/23 08:05:46;;;;;;;48.67;22.33;;;;;;;2.30;100.00;102310.25;4929827;29;20032;-74
2022/01/23 08:08:11;;;;;;;45.70;22.48;;;;;;;2.33;100.00;102304.38;4956509;28;20038;-74
2022/01/23 08:10:36;;;;;;;46.58;22.77;;;;;;;2.33;100.00;102315.34;4956499;28;20038;-72
2022/01/23 08:13:03;;;;;;;48.38;23.25;;;;;;;2.34;100.00;102311.59;4948114;29;20039;-72
2022/01/23 08:15:30;;;;;;;48.33;23.98;;;;;;;2.32;100.00;102299.13;4955406;28;20043;-72
2022/01/23 08:18:01;;;;;;;48.10;23.38;;;;;;;2.32;100.00;102308.19;4923526;29;20082;-72
2022/01/23 08:20:27;;;;;;;43.53;22.60;;;;;;;2.36;100.00;102311.38;4939050;29;20060;-74
2022/01/23 08:22:53;;;;;;;43.08;23.27;;;;;;;2.36;100.00;102308.63;4952252;28;20043;-74
2022/01/23 08:25:18;;;;;;;47.55;24.15;;;;;;;2.38;100.00;102318.38;4927457;29;20046;-74
2022/01/23 08:27:44;;;;;;;47.30;23.13;;;;;;;2.41;100.00;102319.88;4942829;29;20035;-74
2022/01/23 08:30:12;;;;;;;48.20;23.73;;;;;;;2.40;100.00;102326.41;4940675;28;20357;-74
2022/01/23 08:32:37;;;;;;;53.47;24.48;;;;;;;2.40;100.00;102334.63;4959424;28;20565;-75
2022/01/23 08:35:04;;;;;;;47.70;23.65;;;;;;;2.42;100.00;102330.66;4927542;29;20066;-75
2022/01/23 08:37:30;;;;;;;48.47;25.15;;;;;;;2.44;100.00;102339.50;4962139;28;20075;-74
2022/01/23 08:39:55;;;;;;;46.13;25.15;;;;;;;2.46;100.00;102337.44;4953231;28;20094;-74
2022/01/23 08:42:21;;;;;;;51.25;24.48;;;;;;;2.44;100.00;102342.25;4964653;28;20421;-74
2022/01/23 08:44:47;;;;;;;50.50;25.65;;;;;;;2.47;100.00;102343.75;4945406;28;20850;-75
2022/01/23 08:47:13;;;;;;;47.03;24.45;;;;;;;2.43;100.00;102340.56;4922626;29;20039;-75
2022/01/23 08:49:44;;;;;;;51.00;26.88;;;;;;;2.42;100.00;102344.38;4956520;28;20369;-75
2022/01/23 08:52:10;;;;;;;53.83;25.30;;;;;;;2.42;100.00;102346.22;4955384;28;20027;-75
2022/01/23 08:54:35;;;;;;;49.63;25.50;;;;;;;2.39;100.00;102344.72;4918400;29;20058;-75
2022/01/23 08:57:01;;;;;;;55.45;25.25;;;;;;;2.42;100.00;102338.00;4959742;28;20058;-75
2022/01/23 08:59:26;;;;;;;58.10;26.48;;;;;;;2.41;100.00;102334.41;4944362;28;20032;-75
2022/01/23 09:01:52;;;;;;;55.17;26.55;;;;;;;2.40;100.00;102338.22;4971445;28;20039;-75
2022/01/23 09:04:17;;;;;;;52.92;28.67;;;;;;;2.40;100.00;102337.38;4950028;29;20031;-75
2022/01/23 09:06:44;;;;;;;53.05;26.88;;;;;;;2.41;100.00;102330.84;4929723;29;20039;-78
2022/01/23 09:09:15;;;;;;;52.83;27.42;;;;;;;2.44;100.00;102327.69;4960303;28;22664;-78
2022/01/23 09:11:57;;;;;;;53.47;27.38;;;;;;;2.48;100.00;102331.75;4929095;28;20035;-78
2022/01/23 09:14:22;;;;;;;62.42;26.35;;;;;;;2.50;100.00;102323.31;4933503;29;20122;-74
2022/01/23 09:16:48;;;;;;;62.08;28.52;;;;;;;2.51;100.00;102327.75;4928603;29;20039;-73
2022/01/23 09:19:24;;;;;;;54.42;27.33;;;;;;;2.53;100.00;102323.78;4943358;28;20586;-79
2022/01/23 09:21:49;;;;;;;52.97;27.08;;;;;;;2.55;100.00;102318.94;4960197;28;20094;-76
2022/01/23 09:24:19;;;;;;;54.28;27.42;;;;;;;2.58;100.00;102323.19;4945032;29;20483;-77
2022/01/23 09:26:51;;;;;;;54.25;25.75;;;;;;;2.54;100.00;102308.19;4944470;28;20039;-77
2022/01/23 09:29:24;;;;;;;57.55;28.23;;;;;;;2.51;100.00;102312.16;4958004;28;20027;-77
2022/01/23 09:31:50;;;;;;;59.10;29.13;;;;;;;2.50;100.00;102307.72;4965161;28;20225;-77
2022/01/23 09:34:19;;;;;;;58.00;28.05;;;;;;;2.52;100.00;102297.41;4950110;29;20039;-77
2022/01/23 09:36:45;;;;;;;63.22;29.23;;;;;;;2.54;100.00;102299.97;4932154;29;20035;-74
2022/01/23 09:39:15;;;;;;;59.97;28.83;;;;;;;2.56;100.00;102300.59;4961137;28;20038;-75
2022/01/23 09:41:41;;;;;;;60.80;29.13;;;;;;;2.58;100.00;102290.28;4944098;28;20057;-75
2022/01/23 09:44:07;;;;;;;63.65;30.40;;;;;;;2.58;100.00;102302.09;4942961;28;20729;-75
2022/01/23 09:46:32;;;;;;;60.60;28.85;;;;;;;2.62;100.00;102300.66;4934317;28;21015;-75
2022/01/23 09:48:58;;;;;;;59.50;30.50;;;;;;;2.62;100.00;102297.09;4945476;29;20027;-75
2022/01/23 09:51:24;;;;;;;65.20;29.27;;;;;;;2.61;100.00;102295.38;4945326;29;20039;-75
2022/01/23 09:53:52;;;;;;;75.05;33.17;;;;;;;2.62;100.00;102286.94;4953049;29;20046;-75
2022/01/23 09:56:27;;;;;;;65.85;30.58;;;;;;;2.63;100.00;102299.59;4945342;29;20472;-75
2022/01/23 09:58:54;;;;;;;69.10;32.88;;;;;;;2.66;100.00;102292.88;4957085;28;20492;-75
2022/01/23 10:01:20;;;;;;;75.40;34.53;;;;;;;2.66;100.00;102281.91;4942172;28;20035;-74
2022/01/23 10:03:46;;;;;;;74.07;35.63;;;;;;;2.67;100.00;102284.47;4945342;29;20131;-74
2022/01/23 10:06:11;;;;;;;79.45;35.92;;;;;;;2.69;100.00;102278.75;4962522;28;20075;-74
2022/01/23 10:08:37;;;;;;;72.78;34.35;;;;;;;2.74;100.00;102278.19;4945092;29;20031;-74
2022/01/23 10:11:08;;;;;;;75.95;35.65;;;;;;;2.76;100.00;102276.94;4940412;29;20036;-75
2022/01/23 10:13:33;;;;;;;79.05;35.40;;;;;;;2.79;100.00;102268.31;4958340;28;20397;-75
2022/01/23 10:15:59;;;;;;;79.18;35.72;;;;;;;2.81;100.00;102277.16;4943334;29;20031;-75
2022/01/23 10:18:24;;;;;;;79.70;35.53;;;;;;;2.83;100.00;102274.22;4957095;28;20043;-74
2022/01/23 10:20:50;;;;;;;82.22;37.58;;;;;;;2.85;100.00;102267.50;4950361;28;20027;-74
2022/01/23 10:23:15;;;;;;;84.40;37.60;;;;;;;2.88;100.00;102272.59;4944060;29;20046;-75
2022/01/23 10:25:41;;;;;;;82.20;39.65;;;;;;;2.91;100.00;102274.94;4929046;29;20054;-74
2022/01/23 10:28:28;;;;;;;85.88;37.97;;;;;;;2.94;100.00;102272.84;4944071;29;20062;-75
2022/01/23 10:30:58;;;;;;;86.95;37.85;;;;;;;2.95;100.00;102275.38;4942918;29;20036;-75
2022/01/23 10:33:28;;;;;;;82.55;37.85;;;;;;;2.97;100.00;102275.19;4942442;29;20039;-74
2022/01/23 10:35:56;;;;;;;89.88;40.25;;;;;;;3.00;100.00;102277.50;4925338;29;20038;-74
2022/01/23 10:38:22;;;;;;;92.95;40.65;;;;;;;3.02;100.00;102270.78;4944202;29;20122;-73
2022/01/23 10:41:01;;;;;;;90.32;40.95;;;;;;;3.06;100.00;102265.72;4942254;28;20039;-72
2022/01/23 10:48:56;;;;;;;96.25;43.13;;;;;;;3.12;100.00;102265.78;4945635;28;20039;-73
2022/01/23 10:51:24;;;;;;;101.15;42.72;;;;;;;3.14;100.00;102263.66;4939898;29;20043;-72
2022/01/23 10:54:13;;;;;;;88.78;39.83;;;;;;;3.14;100.00;102260.06;4942193;29;20046;-78
2022/01/23 10:57:00;;;;;;;96.35;42.47;;;;;;;3.17;100.00;102265.16;4955781;28;20094;-72
2022/01/23 10:59:39;;;;;;;93.13;41.78;;;;;;;3.22;100.00;102257.16;4966893;28;20043;-78
2022/01/23 11:02:07;;;;;;;98.30;43.15;;;;;;;3.23;100.00;102249.78;4943223;29;20046;-77
2022/01/23 11:04:57;;;;;;;97.68;44.88;;;;;;;3.23;100.00;102239.66;4925656;29;20543;-77
2022/01/23 11:07:23;;;;;;;98.75;42.97;;;;;;;3.26;100.00;102238.38;4916634;29;20038;-76
2022/01/23 11:09:58;;;;;;;103.55;43.92;;;;;;;3.22;100.00;102235.19;4942287;29;20070;-76
2022/01/23 11:18:03;;;;;;;97.22;45.22;;;;;;;3.24;100.00;102233.09;4957013;28;20544;-75
2022/01/23 11:20:42;;;;;;;107.38;46.90;;;;;;;3.25;100.00;102232.06;4956895;28;20035;-76
2022/01/23 11:23:18;;;;;;;104.38;45.25;;;;;;;3.31;100.00;102227.63;4954475;28;20039;-76
2022/01/23 11:25:56;;;;;;;99.38;43.67;;;;;;;3.28;100.00;102214.31;4927066;29;20039;-75
2022/01/23 11:28:37;;;;;;;102.60;45.95;;;;;;;3.28;100.00;102220.66;4958047;28;20510;-76
2022/01/23 11:31:04;;;;;;;99.18;45.60;;;;;;;3.30;100.00;102217.72;4931662;28;20054;-76
2022/01/23 11:33:29;;;;;;;93.22;44.38;;;;;;;3.32;100.00;102210.13;4957900;28;20093;-76
2022/01/23 11:35:55;;;;;;;95.68;43.20;;;;;;;3.34;100.00;102208.00;4941875;29;20027;-76
2022/01/23 11:38:23;;;;;;;101.15;45.47;;;;;;;3.34;100.00;102208.88;4956509;29;20035;-76
2022/01/23 11:54:54;;;;;;;92.13;41.90;;;;;;;3.29;100.00;102205.91;4918480;29;20048;-75
2022/01/23 11:57:37;;;;;;;89.13;39.97;;;;;;;3.23;100.00;102192.13;4917320;29;20036;-74
2022/01/23 12:00:15;;;;;;;90.05;41.28;;;;;;;3.26;100.00;102194.44;4939380;29;20042;-74
2022/01/23 12:02:42;;;;;;;88.30;40.28;;;;;;;3.22;100.00;102191.28;4954616;28;20031;-74
2022/01/23 12:05:19;;;;;;;82.50;36.90;;;;;;;3.22;100.00;102187.69;4958436;28;20031;-74
2022/01/23 12:07:45;;;;;;;83.90;38.95;;;;;;;3.22;100.00;102188.53;4957363;28;20039;-74
2022/01/23 12:10:14;;;;;;;85.18;38.53;;;;;;;3.26;100.00;102189.81;4937332;29;20042;-75
2022/01/23 12:12:44;;;;;;;80.03;36.13;;;;;;;3.23;100.00;102187.50;4950688;28;20038;-75
2022/01/23 12:18:31;;;;;;;79.53;37.50;;;;;;;3.20;100.00;102182.38;4947375;28;20035;-74
2022/01/23 12:20:56;;;;;;;76.55;34.53;;;;;;;3.18;100.00;102183.66;4954241;28;20055;-74
2022/01/23 12:23:22;;;;;;;79.03;35.83;;;;;;;3.19;100.00;102180.69;4947008;28;20119;-74
2022/01/23 12:25:53;;;;;;;75.20;34.45;;;;;;;3.19;100.00;102177.13;4942984;29;20031;-74
2022/01/23 12:28:33;;;;;;;78.75;34.60;;;;;;;3.21;100.00;102183.25;4957694;28;20062;-74
2022/01/23 12:31:00;;;;;;;74.40;33.92;;;;;;;3.24;100.00;102171.84;4941557;28;20058;-74
2022/01/23 12:33:41;;;;;;;75.90;34.05;;;;;;;3.27;100.00;102177.78;4933266;29;20126;-74
2022/01/23 12:36:08;;;;;;;76.78;32.40;;;;;;;3.26;100.00;102162.38;4967594;28;20039;-75
2022/01/23 12:38:42;;;;;;;70.97;30.90;;;;;;;3.23;100.00;102161.91;4952129;28;20046;-74
2022/01/23 12:41:17;;;;;;;86.72;35.72;;;;;;;3.24;100.00;102148.00;4969083;28;20040;-76
2022/01/23 12:43:42;;;;;;;80.30;33.95;;;;;;;3.22;100.00;102150.09;4957861;28;20054;-75
2022/01/23 12:46:08;;;;;;;75.38;33.05;;;;;;;3.26;100.00;102142.28;4925548;29;20063;-76
2022/01/23 12:48:33;;;;;;;78.47;33.20;;;;;;;3.26;100.00;102145.88;4953935;28;20134;-75
2022/01/23 12:51:09;;;;;;;77.47;34.50;;;;;;;3.29;100.00;102150.97;4972411;28;20056;-75
2022/01/23 12:53:47;;;;;;;73.95;32.53;;;;;;;3.32;100.00;102155.19;4957342;28;20484;-75
2022/01/23 12:56:15;;;;;;;70.85;30.95;;;;;;;3.32;100.00;102134.06;4954308;29;20071;-76
2022/01/23 12:58:41;;;;;;;73.35;31.95;;;;;;;3.32;100.00;102136.81;4957438;28;20126;-76
2022/01/23 13:01:15;;;;;;;78.03;31.85;;;;;;;3.33;100.00;102137.66;4939312;29;20023;-76
2022/01/23 13:03:43;;;;;;;74.82;30.58;;;;;;;3.30;100.00;102138.91;4957581;28;20122;-76
2022/01/23 13:06:11;;;;;;;74.15;30.90;;;;;;;3.32;100.00;102134.06;4923387;29;20031;-75
2022/01/23 13:08:46;;;;;;;72.80;29.73;;;;;;;3.29;100.00;102123.50;4934466;29;20061;-75
2022/01/23 13:11:45;;;;;;;73.60;30.92;;;;;;;3.26;100.00;102120.31;4955667;28;20050;-75
2022/01/23 13:13:59;;;;;;;69.22;29.58;;;;;;;3.31;100.00;102118.63;4953027;28;20046;-76
2022/01/23 13:16:36;;;;;;;69.13;29.48;;;;;;;3.31;100.00;102115.03;4941610;28;20042;-76
2022/01/23 13:30:24;;;;;;;70.75;29.33;;;;;;;3.30;100.00;102103.22;4961982;28;20566;-77
2022/01/23 13:32:52;;;;;;;72.78;29.67;;;;;;;3.28;100.00;102094.34;4917242;29;20050;-77
2022/01/23 13:35:18;;;;;;;71.75;29.58;;;;;;;3.26;100.00;102092.84;4943234;29;20066;-76
2022/01/23 13:37:45;;;;;;;70.05;28.33;;;;;;;3.24;100.00;102092.22;4943864;28;20031;-77
2022/01/23 13:40:14;;;;;;;68.72;28.10;;;;;;;3.22;100.00;102088.84;4961685;28;20130;-77
2022/01/23 13:51:39;;;;;;;69.57;28.92;;;;;;;3.19;100.00;102081.84;4949026;28;20522;-75
2022/01/23 14:02:37;;;;;;;59.58;26.00;;;;;;;3.26;100.00;102066.25;4934495;29;20036;-75
2022/01/23 14:05:02;;;;;;;63.42;26.75;;;;;;;3.25;100.00;102067.28;4935990;29;20031;-75
2022/01/23 14:07:28;;;;;;;63.47;25.05;;;;;;;3.24;100.00;102062.03;4935185;29;20134;-75
2022/01/23 14:09:56;;;;;;;58.92;25.67;;;;;;;3.25;100.00;102059.06;4919898;29;20113;-75
2022/01/23 14:12:22;;;;;;;58.55;25.52;;;;;;;3.27;100.00;102064.34;4911449;29;20036;-75
2022/01/23 14:14:52;;;;;;;61.92;25.95;;;;;;;3.28;100.00;102061.38;4934960;29;20068;-75
2022/01/23 14:17:18;;;;;;;60.58;25.38;;;;;;;3.27;100.00;102059.69;4937422;29;20036;-75
2022/01/23 14:20:13;;;;;;;50.53;23.60;;;;;;;3.28;100.00;102058.63;4935321;29;20050;-76
2022/01/23 14:22:41;;;;;;;56.63;23.45;;;;;;;3.25;100.00;102049.97;4895456;29;20051;-76
2022/01/23 14:25:12;;;;;;;53.40;22.98;;;;;;;3.22;100.00;102051.25;4934925;29;20039;-75
2022/01/23 14:27:38;;;;;;;55.13;23.05;;;;;;;3.24;100.00;102040.06;4918421;29;20032;-75
2022/01/23 14:30:06;;;;;;;56.05;23.27;;;;;;;3.18;100.00;102039.00;4934243;29;20071;-75
2022/01/23 14:32:45;;;;;;;52.70;21.70;;;;;;;3.21;100.00;102037.72;4935937;29;20753;-75
2022/01/23 14:35:25;;;;;;;57.05;23.70;;;;;;;3.12;100.00;102035.19;4935747;29;20043;-75
2022/01/23 14:37:52;;;;;;;55.60;23.67;;;;;;;3.14;100.00;102035.78;4939198;28;20024;-76